Terminal Aerodrome Forecast
Issued by NWS

Current Version | Previous Version | Graphics & Text | Print | Product List | Glossary On
Versions: 1 2 3 4 5 6 7 8 9 10 11 12 13 14 15 16 17 18
000
FTUS41 KILN 191133
TAFLCK
TAF
KLCK 191133Z 1912/2012 18012KT 3SM -SHRA OVC015 WS020/21040KT
     FM191500 19009KT 3SM -SHRA OVC008
     FM191700 20012G19KT P6SM VCSH OVC009
     FM192000 20012G19KT P6SM VCSH OVC025
     FM200200 19012KT P6SM SCT015 BKN250=

USA.gov is the U.S. government's official web portal to all federal, state and local government web resources and services.